sensor_id;sensor_type;location;lat;lon;timestamp;P1;durP1;ratioP1;P2;durP2;ratioP2
50789;SDS011;37287;47.554;7.844;2024-03-23T00:56:17;3.88;;;2.50;;
50789;SDS011;37287;47.554;7.844;2024-03-23T00:58:43;3.00;;;2.30;;
50789;SDS011;37287;47.554;7.844;2024-03-23T01:01:08;3.33;;;2.28;;
50789;SDS011;37287;47.554;7.844;2024-03-23T01:03:34;2.42;;;2.22;;
50789;SDS011;37287;47.554;7.844;2024-03-23T01:06:00;2.88;;;2.15;;
50789;SDS011;37287;47.554;7.844;2024-03-23T01:08:28;2.90;;;2.35;;
50789;SDS011;37287;47.554;7.844;2024-03-23T01:10:57;2.92;;;2.60;;
50789;SDS011;37287;47.554;7.844;2024-03-23T01:13:25;2.72;;;2.20;;
50789;SDS011;37287;47.554;7.844;2024-03-23T01:15:51;4.72;;;2.60;;
50789;SDS011;37287;47.554;7.844;2024-03-23T01:18:18;4.60;;;2.47;;
50789;SDS011;37287;47.554;7.844;2024-03-23T01:20:45;2.65;;;2.35;;
50789;SDS011;37287;47.554;7.844;2024-03-23T01:23:11;3.20;;;2.83;;
50789;SDS011;37287;47.554;7.844;2024-03-23T01:25:37;4.03;;;3.03;;
50789;SDS011;37287;47.554;7.844;2024-03-23T01:28:03;11.52;;;3.47;;
50789;SDS011;37287;47.554;7.844;2024-03-23T01:30:29;5.75;;;3.30;;
50789;SDS011;37287;47.554;7.844;2024-03-23T01:32:56;6.68;;;3.08;;
50789;SDS011;37287;47.554;7.844;2024-03-23T01:35:21;4.03;;;2.78;;
50789;SDS011;37287;47.554;7.844;2024-03-23T01:37:47;3.45;;;2.75;;
50789;SDS011;37287;47.554;7.844;2024-03-23T01:40:13;3.30;;;2.65;;
50789;SDS011;37287;47.554;7.844;2024-03-23T01:42:39;2.60;;;2.28;;
50789;SDS011;37287;47.554;7.844;2024-03-23T01:45:06;2.80;;;2.38;;
50789;SDS011;37287;47.554;7.844;2024-03-23T01:47:33;3.35;;;2.40;;
50789;SDS011;37287;47.554;7.844;2024-03-23T01:49:59;3.65;;;2.20;;
50789;SDS011;37287;47.554;7.844;2024-03-23T01:52:25;5.00;;;2.17;;
50789;SDS011;37287;47.554;7.844;2024-03-23T01:54:52;2.67;;;2.30;;
50789;SDS011;37287;47.554;7.844;2024-03-23T01:57:19;3.95;;;2.10;;
50789;SDS011;37287;47.554;7.844;2024-03-23T01:59:48;2.85;;;2.50;;
50789;SDS011;37287;47.554;7.844;2024-03-23T02:02:14;3.65;;;2.33;;
50789;SDS011;37287;47.554;7.844;2024-03-23T02:04:43;5.78;;;2.40;;
50789;SDS011;37287;47.554;7.844;2024-03-23T02:07:08;2.38;;;2.10;;
50789;SDS011;37287;47.554;7.844;2024-03-23T02:09:34;5.80;;;2.10;;
50789;SDS011;37287;47.554;7.844;2024-03-23T02:12:03;2.55;;;2.22;;
50789;SDS011;37287;47.554;7.844;2024-03-23T02:14:30;4.05;;;2.90;;
50789;SDS011;37287;47.554;7.844;2024-03-23T02:16:55;2.65;;;2.40;;
50789;SDS011;37287;47.554;7.844;2024-03-23T02:19:21;3.33;;;2.38;;
50789;SDS011;37287;47.554;7.844;2024-03-23T02:21:47;2.67;;;2.40;;
50789;SDS011;37287;47.554;7.844;2024-03-23T02:24:13;3.70;;;2.30;;
50789;SDS011;37287;47.554;7.844;2024-03-23T02:26:39;3.60;;;2.40;;
50789;SDS011;37287;47.554;7.844;2024-03-23T02:29:04;2.30;;;2.00;;
50789;SDS011;37287;47.554;7.844;2024-03-23T02:31:30;2.22;;;2.03;;
50789;SDS011;37287;47.554;7.844;2024-03-23T02:33:56;3.13;;;2.25;;
50789;SDS011;37287;47.554;7.844;2024-03-23T02:36:21;6.30;;;2.40;;
50789;SDS011;37287;47.554;7.844;2024-03-23T02:38:47;2.53;;;2.33;;
50789;SDS011;37287;47.554;7.844;2024-03-23T02:41:13;2.38;;;2.08;;
50789;SDS011;37287;47.554;7.844;2024-03-23T02:43:39;2.85;;;2.03;;
50789;SDS011;37287;47.554;7.844;2024-03-23T02:46:04;2.55;;;2.20;;
50789;SDS011;37287;47.554;7.844;2024-03-23T02:48:30;3.15;;;2.03;;
50789;SDS011;37287;47.554;7.844;2024-03-23T02:50:56;1.70;;;1.52;;
50789;SDS011;37287;47.554;7.844;2024-03-23T02:53:22;3.08;;;1.85;;
50789;SDS011;37287;47.554;7.844;2024-03-23T02:55:47;2.53;;;1.90;;
50789;SDS011;37287;47.554;7.844;2024-03-23T02:58:13;2.53;;;2.10;;
50789;SDS011;37287;47.554;7.844;2024-03-23T03:00:39;3.40;;;2.05;;
50789;SDS011;37287;47.554;7.844;2024-03-23T03:03:06;2.38;;;2.13;;
50789;SDS011;37287;47.554;7.844;2024-03-23T03:05:32;2.33;;;1.77;;
50789;SDS011;37287;47.554;7.844;2024-03-23T03:07:58;2.53;;;1.98;;
50789;SDS011;37287;47.554;7.844;2024-03-23T03:10:24;5.22;;;2.15;;
50789;SDS011;37287;47.554;7.844;2024-03-23T03:12:49;2.70;;;1.67;;
50789;SDS011;37287;47.554;7.844;2024-03-23T03:15:15;2.45;;;2.10;;
50789;SDS011;37287;47.554;7.844;2024-03-23T03:17:41;2.10;;;1.90;;
50789;SDS011;37287;47.554;7.844;2024-03-23T03:20:07;4.15;;;2.03;;
50789;SDS011;37287;47.554;7.844;2024-03-23T03:22:38;1.98;;;1.83;;
50789;SDS011;37287;47.554;7.844;2024-03-23T03:25:09;3.15;;;1.90;;
50789;SDS011;37287;47.554;7.844;2024-03-23T03:27:35;2.38;;;1.80;;
50789;SDS011;37287;47.554;7.844;2024-03-23T03:30:01;3.15;;;1.90;;
50789;SDS011;37287;47.554;7.844;2024-03-23T03:32:31;2.28;;;2.08;;
50789;SDS011;37287;47.554;7.844;2024-03-23T03:34:57;2.05;;;1.85;;
50789;SDS011;37287;47.554;7.844;2024-03-23T03:37:24;3.38;;;2.20;;
50789;SDS011;37287;47.554;7.844;2024-03-23T03:39:49;1.92;;;1.83;;
50789;SDS011;37287;47.554;7.844;2024-03-23T03:42:15;5.43;;;2.05;;
50789;SDS011;37287;47.554;7.844;2024-03-23T03:44:41;2.38;;;2.05;;
50789;SDS011;37287;47.554;7.844;2024-03-23T03:47:07;2.80;;;1.92;;
50789;SDS011;37287;47.554;7.844;2024-03-23T03:49:33;2.70;;;2.05;;
50789;SDS011;37287;47.554;7.844;2024-03-23T03:51:58;1.90;;;1.80;;
50789;SDS011;37287;47.554;7.844;2024-03-23T03:54:26;2.38;;;1.67;;
50789;SDS011;37287;47.554;7.844;2024-03-23T03:56:52;2.63;;;1.90;;
50789;SDS011;37287;47.554;7.844;2024-03-23T03:59:18;2.58;;;1.70;;
50789;SDS011;37287;47.554;7.844;2024-03-23T04:01:46;2.53;;;2.33;;
50789;SDS011;37287;47.554;7.844;2024-03-23T04:04:11;5.63;;;2.40;;
50789;SDS011;37287;47.554;7.844;2024-03-23T04:06:37;3.30;;;2.10;;
50789;SDS011;37287;47.554;7.844;2024-03-23T04:09:04;3.30;;;2.20;;
50789;SDS011;37287;47.554;7.844;2024-03-23T04:11:29;3.47;;;2.00;;
50789;SDS011;37287;47.554;7.844;2024-03-23T04:13:55;2.72;;;2.22;;
50789;SDS011;37287;47.554;7.844;2024-03-23T04:16:26;2.63;;;2.13;;
50789;SDS011;37287;47.554;7.844;2024-03-23T04:18:52;2.30;;;2.00;;
50789;SDS011;37287;47.554;7.844;2024-03-23T04:21:18;3.00;;;2.25;;
50789;SDS011;37287;47.554;7.844;2024-03-23T04:23:44;4.53;;;3.60;;
50789;SDS011;37287;47.554;7.844;2024-03-23T04:26:10;8.25;;;3.38;;
50789;SDS011;37287;47.554;7.844;2024-03-23T04:28:35;5.53;;;3.58;;
50789;SDS011;37287;47.554;7.844;2024-03-23T04:31:04;11.73;;;4.78;;
50789;SDS011;37287;47.554;7.844;2024-03-23T04:33:30;12.00;;;4.63;;
50789;SDS011;37287;47.554;7.844;2024-03-23T04:35:56;9.13;;;4.78;;
50789;SDS011;37287;47.554;7.844;2024-03-23T04:38:22;6.22;;;4.18;;
50789;SDS011;37287;47.554;7.844;2024-03-23T04:40:57;9.93;;;3.90;;
50789;SDS011;37287;47.554;7.844;2024-03-23T04:43:25;7.10;;;4.15;;
50789;SDS011;37287;47.554;7.844;2024-03-23T04:45:51;5.88;;;3.78;;
50789;SDS011;37287;47.554;7.844;2024-03-23T04:48:19;6.80;;;3.20;;
50789;SDS011;37287;47.554;7.844;2024-03-23T04:50:46;4.53;;;3.35;;
50789;SDS011;37287;47.554;7.844;2024-03-23T04:53:11;6.38;;;3.67;;
50789;SDS011;37287;47.554;7.844;2024-03-23T04:55:37;8.15;;;4.07;;
50789;SDS011;37287;47.554;7.844;2024-03-23T04:58:03;5.15;;;4.15;;
50789;SDS011;37287;47.554;7.844;2024-03-23T05:00:29;5.50;;;3.47;;
50789;SDS011;37287;47.554;7.844;2024-03-23T05:02:54;6.00;;;3.90;;
50789;SDS011;37287;47.554;7.844;2024-03-23T05:05:20;4.97;;;3.15;;
50789;SDS011;37287;47.554;7.844;2024-03-23T05:07:46;5.03;;;3.70;;
50789;SDS011;37287;47.554;7.844;2024-03-23T05:10:12;4.55;;;3.70;;
50789;SDS011;37287;47.554;7.844;2024-03-23T05:12:39;5.10;;;3.80;;
50789;SDS011;37287;47.554;7.844;2024-03-23T05:15:05;4.63;;;3.35;;
50789;SDS011;37287;47.554;7.844;2024-03-23T05:17:32;6.05;;;4.10;;
50789;SDS011;37287;47.554;7.844;2024-03-23T05:19:58;5.60;;;4.30;;
50789;SDS011;37287;47.554;7.844;2024-03-23T05:22:24;7.22;;;4.68;;
50789;SDS011;37287;47.554;7.844;2024-03-23T05:24:49;5.28;;;3.95;;
50789;SDS011;37287;47.554;7.844;2024-03-23T05:27:15;5.30;;;4.20;;
50789;SDS011;37287;47.554;7.844;2024-03-23T05:29:41;5.82;;;4.20;;
50789;SDS011;37287;47.554;7.844;2024-03-23T05:32:07;6.10;;;4.28;;
50789;SDS011;37287;47.554;7.844;2024-03-23T05:34:33;7.25;;;5.05;;
50789;SDS011;37287;47.554;7.844;2024-03-23T05:36:58;5.97;;;5.15;;
50789;SDS011;37287;47.554;7.844;2024-03-23T05:39:24;10.32;;;5.47;;
50789;SDS011;37287;47.554;7.844;2024-03-23T05:41:50;11.05;;;5.95;;
50789;SDS011;37287;47.554;7.844;2024-03-23T05:44:16;8.15;;;6.03;;
50789;SDS011;37287;47.554;7.844;2024-03-23T05:46:42;6.63;;;5.03;;
50789;SDS011;37287;47.554;7.844;2024-03-23T05:49:13;5.85;;;4.80;;
50789;SDS011;37287;47.554;7.844;2024-03-23T05:51:39;11.52;;;6.65;;
50789;SDS011;37287;47.554;7.844;2024-03-23T05:54:05;8.50;;;6.25;;
50789;SDS011;37287;47.554;7.844;2024-03-23T05:56:31;8.75;;;5.97;;
50789;SDS011;37287;47.554;7.844;2024-03-23T05:58:57;8.77;;;6.30;;
50789;SDS011;37287;47.554;7.844;2024-03-23T06:01:22;7.45;;;5.60;;
50789;SDS011;37287;47.554;7.844;2024-03-23T06:03:48;6.55;;;5.22;;
50789;SDS011;37287;47.554;7.844;2024-03-23T06:06:14;7.65;;;5.88;;
50789;SDS011;37287;47.554;7.844;2024-03-23T06:08:40;8.88;;;5.70;;
50789;SDS011;37287;47.554;7.844;2024-03-23T06:11:06;7.75;;;5.88;;
50789;SDS011;37287;47.554;7.844;2024-03-23T06:13:32;7.88;;;5.70;;
50789;SDS011;37287;47.554;7.844;2024-03-23T06:15:59;5.80;;;5.20;;
50789;SDS011;37287;47.554;7.844;2024-03-23T06:18:25;8.82;;;4.78;;
50789;SDS011;37287;47.554;7.844;2024-03-23T06:20:51;6.53;;;5.50;;
50789;SDS011;37287;47.554;7.844;2024-03-23T06:23:17;6.47;;;5.30;;
50789;SDS011;37287;47.554;7.844;2024-03-23T06:25:45;6.53;;;5.68;;
50789;SDS011;37287;47.554;7.844;2024-03-23T06:28:12;6.88;;;4.95;;
50789;SDS011;37287;47.554;7.844;2024-03-23T06:30:38;7.82;;;5.53;;
50789;SDS011;37287;47.554;7.844;2024-03-23T06:33:03;6.10;;;5.25;;
50789;SDS011;37287;47.554;7.844;2024-03-23T06:35:31;8.23;;;5.80;;
50789;SDS011;37287;47.554;7.844;2024-03-23T06:37:57;5.18;;;4.68;;
50789;SDS011;37287;47.554;7.844;2024-03-23T06:40:23;5.38;;;4.85;;
50789;SDS011;37287;47.554;7.844;2024-03-23T06:42:49;6.20;;;4.50;;
50789;SDS011;37287;47.554;7.844;2024-03-23T06:45:16;8.82;;;5.20;;
50789;SDS011;37287;47.554;7.844;2024-03-23T06:47:42;6.88;;;5.47;;
50789;SDS011;37287;47.554;7.844;2024-03-23T06:50:08;5.78;;;5.10;;
50789;SDS011;37287;47.554;7.844;2024-03-23T06:52:35;7.30;;;5.20;;
50789;SDS011;37287;47.554;7.844;2024-03-23T06:55:01;5.80;;;4.95;;
50789;SDS011;37287;47.554;7.844;2024-03-23T06:57:29;6.55;;;5.10;;
50789;SDS011;37287;47.554;7.844;2024-03-23T06:59:55;10.02;;;7.22;;
50789;SDS011;37287;47.554;7.844;2024-03-23T07:02:21;6.57;;;5.95;;
50789;SDS011;37287;47.554;7.844;2024-03-23T07:04:46;5.45;;;4.43;;
50789;SDS011;37287;47.554;7.844;2024-03-23T07:07:12;5.47;;;4.00;;
50789;SDS011;37287;47.554;7.844;2024-03-23T07:09:38;3.15;;;2.72;;
50789;SDS011;37287;47.554;7.844;2024-03-23T07:12:04;2.15;;;2.05;;
50789;SDS011;37287;47.554;7.844;2024-03-23T07:14:30;3.30;;;1.70;;
50789;SDS011;37287;47.554;7.844;2024-03-23T07:16:55;3.13;;;2.00;;
50789;SDS011;37287;47.554;7.844;2024-03-23T07:19:22;1.58;;;1.40;;
50789;SDS011;37287;47.554;7.844;2024-03-23T07:21:48;1.77;;;1.30;;
50789;SDS011;37287;47.554;7.844;2024-03-23T07:24:14;2.58;;;1.15;;
50789;SDS011;37287;47.554;7.844;2024-03-23T07:26:40;0.63;;;0.63;;
50789;SDS011;37287;47.554;7.844;2024-03-23T07:29:06;0.77;;;0.77;;
50789;SDS011;37287;47.554;7.844;2024-03-23T07:31:32;0.82;;;0.82;;
50789;SDS011;37287;47.554;7.844;2024-03-23T07:33:58;1.90;;;0.93;;
50789;SDS011;37287;47.554;7.844;2024-03-23T07:36:23;0.93;;;0.70;;
50789;SDS011;37287;47.554;7.844;2024-03-23T07:38:50;1.42;;;1.00;;
50789;SDS011;37287;47.554;7.844;2024-03-23T07:41:19;1.25;;;0.70;;
50789;SDS011;37287;47.554;7.844;2024-03-23T07:43:46;1.00;;;0.73;;
50789;SDS011;37287;47.554;7.844;2024-03-23T07:46:14;2.05;;;1.38;;
50789;SDS011;37287;47.554;7.844;2024-03-23T07:48:40;2.13;;;1.50;;
50789;SDS011;37287;47.554;7.844;2024-03-23T07:51:15;2.63;;;1.33;;
50789;SDS011;37287;47.554;7.844;2024-03-23T07:53:42;3.25;;;1.27;;
50789;SDS011;37287;47.554;7.844;2024-03-23T07:56:09;0.95;;;0.85;;
50789;SDS011;37287;47.554;7.844;2024-03-23T07:58:36;1.98;;;1.00;;
50789;SDS011;37287;47.554;7.844;2024-03-23T08:03:33;3.88;;;1.13;;
50789;SDS011;37287;47.554;7.844;2024-03-23T08:06:18;6.43;;;1.45;;
50789;SDS011;37287;47.554;7.844;2024-03-23T08:08:50;5.25;;;1.63;;
50789;SDS011;37287;47.554;7.844;2024-03-23T08:11:31;6.20;;;1.27;;
50789;SDS011;37287;47.554;7.844;2024-03-23T08:13:57;8.32;;;1.70;;
50789;SDS011;37287;47.554;7.844;2024-03-23T08:16:23;6.30;;;1.58;;
50789;SDS011;37287;47.554;7.844;2024-03-23T08:18:53;4.57;;;1.50;;
50789;SDS011;37287;47.554;7.844;2024-03-23T08:21:20;7.25;;;1.80;;
50789;SDS011;37287;47.554;7.844;2024-03-23T08:23:46;8.25;;;1.90;;
50789;SDS011;37287;47.554;7.844;2024-03-23T08:26:14;5.07;;;2.03;;
50789;SDS011;37287;47.554;7.844;2024-03-23T08:28:41;7.10;;;1.92;;
50789;SDS011;37287;47.554;7.844;2024-03-23T08:31:08;7.22;;;2.03;;
50789;SDS011;37287;47.554;7.844;2024-03-23T08:33:34;7.72;;;2.05;;
50789;SDS011;37287;47.554;7.844;2024-03-23T08:36:04;6.38;;;2.00;;
50789;SDS011;37287;47.554;7.844;2024-03-23T08:38:31;9.52;;;2.30;;
50789;SDS011;37287;47.554;7.844;2024-03-23T08:40:58;6.10;;;2.17;;
50789;SDS011;37287;47.554;7.844;2024-03-23T08:43:39;8.05;;;2.70;;
50789;SDS011;37287;47.554;7.844;2024-03-23T08:48:39;11.45;;;2.72;;
50789;SDS011;37287;47.554;7.844;2024-03-23T08:51:08;12.52;;;3.08;;
50789;SDS011;37287;47.554;7.844;2024-03-23T08:53:34;9.32;;;2.70;;
50789;SDS011;37287;47.554;7.844;2024-03-23T08:56:01;7.53;;;2.63;;
50789;SDS011;37287;47.554;7.844;2024-03-23T08:58:28;11.57;;;2.83;;
50789;SDS011;37287;47.554;7.844;2024-03-23T09:00:55;10.10;;;2.80;;
50789;SDS011;37287;47.554;7.844;2024-03-23T09:03:22;13.57;;;2.92;;
50789;SDS011;37287;47.554;7.844;2024-03-23T09:05:49;6.40;;;2.60;;
50789;SDS011;37287;47.554;7.844;2024-03-23T09:08:15;9.43;;;3.20;;
50789;SDS011;37287;47.554;7.844;2024-03-23T09:10:41;10.15;;;3.15;;
50789;SDS011;37287;47.554;7.844;2024-03-23T09:13:07;10.48;;;3.38;;
50789;SDS011;37287;47.554;7.844;2024-03-23T09:15:37;11.05;;;3.17;;
50789;SDS011;37287;47.554;7.844;2024-03-23T09:18:10;5.55;;;2.17;;
50789;SDS011;37287;47.554;7.844;2024-03-23T09:20:36;10.13;;;2.78;;
50789;SDS011;37287;47.554;7.844;2024-03-23T09:23:01;5.72;;;2.33;;
50789;SDS011;37287;47.554;7.844;2024-03-23T09:25:27;5.57;;;2.25;;
50789;SDS011;37287;47.554;7.844;2024-03-23T09:27:53;7.47;;;2.45;;
50789;SDS011;37287;47.554;7.844;2024-03-23T09:30:19;8.05;;;2.55;;
50789;SDS011;37287;47.554;7.844;2024-03-23T09:32:45;11.05;;;3.10;;
50789;SDS011;37287;47.554;7.844;2024-03-23T09:35:11;11.88;;;2.60;;
50789;SDS011;37287;47.554;7.844;2024-03-23T09:37:40;11.40;;;2.95;;
50789;SDS011;37287;47.554;7.844;2024-03-23T09:40:09;13.45;;;3.17;;
50789;SDS011;37287;47.554;7.844;2024-03-23T09:42:35;9.63;;;2.85;;
50789;SDS011;37287;47.554;7.844;2024-03-23T09:45:01;13.13;;;3.28;;
50789;SDS011;37287;47.554;7.844;2024-03-23T09:47:27;12.90;;;3.05;;
50789;SDS011;37287;47.554;7.844;2024-03-23T09:49:54;11.45;;;3.35;;
50789;SDS011;37287;47.554;7.844;2024-03-23T09:52:20;15.32;;;3.35;;
50789;SDS011;37287;47.554;7.844;2024-03-23T09:54:46;11.50;;;2.88;;
50789;SDS011;37287;47.554;7.844;2024-03-23T09:57:11;13.25;;;2.88;;
50789;SDS011;37287;47.554;7.844;2024-03-23T09:59:37;11.27;;;2.88;;
50789;SDS011;37287;47.554;7.844;2024-03-23T10:02:03;11.95;;;3.45;;
50789;SDS011;37287;47.554;7.844;2024-03-23T10:04:36;14.25;;;3.03;;
50789;SDS011;37287;47.554;7.844;2024-03-23T10:07:15;16.42;;;2.75;;
50789;SDS011;37287;47.554;7.844;2024-03-23T10:09:43;10.20;;;2.80;;
50789;SDS011;37287;47.554;7.844;2024-03-23T10:12:13;12.10;;;2.85;;
50789;SDS011;37287;47.554;7.844;2024-03-23T10:14:40;10.27;;;2.28;;
50789;SDS011;37287;47.554;7.844;2024-03-23T10:19:45;10.18;;;2.50;;
50789;SDS011;37287;47.554;7.844;2024-03-23T10:22:17;10.48;;;2.85;;
50789;SDS011;37287;47.554;7.844;2024-03-23T10:24:47;9.48;;;2.42;;
50789;SDS011;37287;47.554;7.844;2024-03-23T10:27:17;6.60;;;2.05;;
50789;SDS011;37287;47.554;7.844;2024-03-23T10:29:45;8.63;;;2.72;;
50789;SDS011;37287;47.554;7.844;2024-03-23T10:32:12;9.18;;;2.80;;
50789;SDS011;37287;47.554;7.844;2024-03-23T10:34:39;15.20;;;2.33;;
50789;SDS011;37287;47.554;7.844;2024-03-23T10:37:05;9.05;;;2.30;;
50789;SDS011;37287;47.554;7.844;2024-03-23T10:39:32;9.80;;;2.70;;
50789;SDS011;37287;47.554;7.844;2024-03-23T10:42:01;7.60;;;2.00;;
50789;SDS011;37287;47.554;7.844;2024-03-23T10:44:29;6.05;;;2.25;;
50789;SDS011;37287;47.554;7.844;2024-03-23T10:46:59;8.65;;;2.20;;
50789;SDS011;37287;47.554;7.844;2024-03-23T10:49:30;6.60;;;2.00;;
50789;SDS011;37287;47.554;7.844;2024-03-23T10:51:58;7.13;;;2.20;;
50789;SDS011;37287;47.554;7.844;2024-03-23T10:54:25;6.95;;;2.10;;
50789;SDS011;37287;47.554;7.844;2024-03-23T10:56:53;8.02;;;1.83;;
50789;SDS011;37287;47.554;7.844;2024-03-23T10:59:25;7.72;;;2.03;;
50789;SDS011;37287;47.554;7.844;2024-03-23T11:01:58;10.38;;;2.20;;
50789;SDS011;37287;47.554;7.844;2024-03-23T11:04:34;11.30;;;2.40;;
50789;SDS011;37287;47.554;7.844;2024-03-23T11:09:48;8.30;;;2.15;;
50789;SDS011;37287;47.554;7.844;2024-03-23T11:15:01;10.60;;;2.30;;
50789;SDS011;37287;47.554;7.844;2024-03-23T11:17:29;6.43;;;1.77;;
50789;SDS011;37287;47.554;7.844;2024-03-23T11:20:05;4.80;;;1.83;;
50789;SDS011;37287;47.554;7.844;2024-03-23T11:22:38;2.40;;;1.17;;
50789;SDS011;37287;47.554;7.844;2024-03-23T11:25:21;3.35;;;1.25;;
50789;SDS011;37287;47.554;7.844;2024-03-23T11:27:52;3.00;;;1.25;;
50789;SDS011;37287;47.554;7.844;2024-03-23T11:30:20;3.65;;;1.27;;
50789;SDS011;37287;47.554;7.844;2024-03-23T11:32:53;5.80;;;1.60;;
50789;SDS011;37287;47.554;7.844;2024-03-23T11:40:33;3.50;;;1.50;;
50789;SDS011;37287;47.554;7.844;2024-03-23T11:43:02;5.07;;;1.52;;
50789;SDS011;37287;47.554;7.844;2024-03-23T11:45:33;3.72;;;1.52;;
50789;SDS011;37287;47.554;7.844;2024-03-23T11:50:34;4.40;;;1.80;;
50789;SDS011;37287;47.554;7.844;2024-03-23T11:53:08;2.95;;;1.30;;
50789;SDS011;37287;47.554;7.844;2024-03-23T11:55:39;2.90;;;1.60;;
50789;SDS011;37287;47.554;7.844;2024-03-23T11:58:07;5.82;;;1.55;;
50789;SDS011;37287;47.554;7.844;2024-03-23T12:00:33;7.75;;;1.70;;
50789;SDS011;37287;47.554;7.844;2024-03-23T12:03:00;9.10;;;1.80;;
50789;SDS011;37287;47.554;7.844;2024-03-23T12:05:29;3.60;;;1.63;;
50789;SDS011;37287;47.554;7.844;2024-03-23T12:08:14;4.65;;;1.70;;
50789;SDS011;37287;47.554;7.844;2024-03-23T12:10:43;6.57;;;1.77;;
50789;SDS011;37287;47.554;7.844;2024-03-23T12:13:11;5.95;;;1.23;;
50789;SDS011;37287;47.554;7.844;2024-03-23T12:15:36;6.07;;;1.75;;
50789;SDS011;37287;47.554;7.844;2024-03-23T12:18:06;5.53;;;1.70;;
50789;SDS011;37287;47.554;7.844;2024-03-23T12:20:32;3.65;;;1.30;;
50789;SDS011;37287;47.554;7.844;2024-03-23T12:23:05;3.25;;;1.52;;
50789;SDS011;37287;47.554;7.844;2024-03-23T12:25:35;4.78;;;1.23;;
50789;SDS011;37287;47.554;7.844;2024-03-23T12:28:01;4.35;;;1.83;;
50789;SDS011;37287;47.554;7.844;2024-03-23T12:30:27;5.60;;;1.73;;
50789;SDS011;37287;47.554;7.844;2024-03-23T12:32:53;5.75;;;2.00;;
50789;SDS011;37287;47.554;7.844;2024-03-23T12:35:19;5.80;;;1.52;;
50789;SDS011;37287;47.554;7.844;2024-03-23T12:37:45;3.30;;;1.30;;
50789;SDS011;37287;47.554;7.844;2024-03-23T12:40:11;2.85;;;1.45;;
50789;SDS011;37287;47.554;7.844;2024-03-23T12:42:37;3.72;;;1.85;;
50789;SDS011;37287;47.554;7.844;2024-03-23T12:45:03;7.05;;;2.10;;
50789;SDS011;37287;47.554;7.844;2024-03-23T12:47:32;5.82;;;1.90;;
50789;SDS011;37287;47.554;7.844;2024-03-23T12:49:58;7.30;;;2.20;;
50789;SDS011;37287;47.554;7.844;2024-03-23T12:52:24;5.35;;;2.20;;
50789;SDS011;37287;47.554;7.844;2024-03-23T12:54:54;6.30;;;1.98;;
50789;SDS011;37287;47.554;7.844;2024-03-23T12:57:23;5.68;;;1.73;;
50789;SDS011;37287;47.554;7.844;2024-03-23T12:59:50;5.38;;;1.85;;
50789;SDS011;37287;47.554;7.844;2024-03-23T13:02:19;5.60;;;1.95;;
50789;SDS011;37287;47.554;7.844;2024-03-23T13:04:46;5.55;;;1.55;;
50789;SDS011;37287;47.554;7.844;2024-03-23T13:07:15;5.80;;;2.28;;
50789;SDS011;37287;47.554;7.844;2024-03-23T13:09:42;9.85;;;2.25;;
50789;SDS011;37287;47.554;7.844;2024-03-23T13:12:07;6.20;;;2.00;;
50789;SDS011;37287;47.554;7.844;2024-03-23T13:14:33;6.78;;;2.20;;
50789;SDS011;37287;47.554;7.844;2024-03-23T13:16:59;5.70;;;1.85;;
50789;SDS011;37287;47.554;7.844;2024-03-23T13:19:25;5.70;;;1.95;;
50789;SDS011;37287;47.554;7.844;2024-03-23T13:21:53;11.02;;;2.10;;
50789;SDS011;37287;47.554;7.844;2024-03-23T13:24:23;7.47;;;2.03;;
50789;SDS011;37287;47.554;7.844;2024-03-23T13:26:52;4.95;;;1.67;;
50789;SDS011;37287;47.554;7.844;2024-03-23T13:29:19;5.93;;;2.05;;
50789;SDS011;37287;47.554;7.844;2024-03-23T13:31:45;7.82;;;2.10;;
50789;SDS011;37287;47.554;7.844;2024-03-23T13:34:12;5.50;;;1.48;;
50789;SDS011;37287;47.554;7.844;2024-03-23T13:36:41;5.07;;;1.80;;
50789;SDS011;37287;47.554;7.844;2024-03-23T13:39:10;5.25;;;1.63;;
50789;SDS011;37287;47.554;7.844;2024-03-23T13:41:40;4.05;;;1.58;;
50789;SDS011;37287;47.554;7.844;2024-03-23T13:44:07;6.80;;;1.95;;
50789;SDS011;37287;47.554;7.844;2024-03-23T13:46:33;5.25;;;1.73;;
50789;SDS011;37287;47.554;7.844;2024-03-23T13:48:59;4.82;;;1.60;;
50789;SDS011;37287;47.554;7.844;2024-03-23T13:51:26;7.28;;;1.10;;
50789;SDS011;37287;47.554;7.844;2024-03-23T13:53:55;6.80;;;1.40;;
50789;SDS011;37287;47.554;7.844;2024-03-23T13:56:28;3.25;;;1.48;;
50789;SDS011;37287;47.554;7.844;2024-03-23T13:58:57;3.58;;;1.02;;
50789;SDS011;37287;47.554;7.844;2024-03-23T14:01:23;4.40;;;1.25;;
50789;SDS011;37287;47.554;7.844;2024-03-23T14:03:49;6.55;;;1.42;;
50789;SDS011;37287;47.554;7.844;2024-03-23T14:06:15;4.30;;;1.30;;
50789;SDS011;37287;47.554;7.844;2024-03-23T14:08:41;3.50;;;1.10;;
50789;SDS011;37287;47.554;7.844;2024-03-23T14:11:08;5.22;;;1.20;;
50789;SDS011;37287;47.554;7.844;2024-03-23T14:13:35;1.98;;;1.20;;
50789;SDS011;37287;47.554;7.844;2024-03-23T14:16:01;3.85;;;1.52;;
50789;SDS011;37287;47.554;7.844;2024-03-23T14:18:28;5.45;;;1.48;;
50789;SDS011;37287;47.554;7.844;2024-03-23T14:21:00;4.57;;;1.30;;
50789;SDS011;37287;47.554;7.844;2024-03-23T14:23:26;7.10;;;1.77;;
50789;SDS011;37287;47.554;7.844;2024-03-23T14:26:00;3.63;;;0.88;;
50789;SDS011;37287;47.554;7.844;2024-03-23T14:28:26;3.22;;;1.25;;
50789;SDS011;37287;47.554;7.844;2024-03-23T14:30:52;3.30;;;1.40;;
50789;SDS011;37287;47.554;7.844;2024-03-23T14:33:20;5.00;;;1.77;;
50789;SDS011;37287;47.554;7.844;2024-03-23T14:35:56;6.55;;;1.85;;
50789;SDS011;37287;47.554;7.844;2024-03-23T14:38:22;2.63;;;1.25;;
50789;SDS011;37287;47.554;7.844;2024-03-23T14:40:49;3.97;;;1.48;;
50789;SDS011;37287;47.554;7.844;2024-03-23T14:43:15;6.35;;;1.67;;
50789;SDS011;37287;47.554;7.844;2024-03-23T14:45:48;3.83;;;1.42;;
50789;SDS011;37287;47.554;7.844;2024-03-23T14:48:37;4.27;;;1.30;;
50789;SDS011;37287;47.554;7.844;2024-03-23T14:51:03;4.78;;;1.70;;
50789;SDS011;37287;47.554;7.844;2024-03-23T14:53:34;3.25;;;1.30;;
50789;SDS011;37287;47.554;7.844;2024-03-23T14:56:01;3.67;;;1.30;;
50789;SDS011;37287;47.554;7.844;2024-03-23T14:58:28;2.33;;;1.23;;
50789;SDS011;37287;47.554;7.844;2024-03-23T15:01:04;4.20;;;0.93;;
50789;SDS011;37287;47.554;7.844;2024-03-23T15:03:34;2.85;;;1.00;;
50789;SDS011;37287;47.554;7.844;2024-03-23T15:06:00;4.10;;;1.20;;
50789;SDS011;37287;47.554;7.844;2024-03-23T15:08:26;5.28;;;1.60;;
50789;SDS011;37287;47.554;7.844;2024-03-23T15:10:58;3.33;;;1.55;;
50789;SDS011;37287;47.554;7.844;2024-03-23T15:13:24;6.95;;;2.58;;
50789;SDS011;37287;47.554;7.844;2024-03-23T15:15:50;5.60;;;2.50;;
50789;SDS011;37287;47.554;7.844;2024-03-23T15:18:17;6.82;;;4.05;;
50789;SDS011;37287;47.554;7.844;2024-03-23T15:23:20;8.57;;;3.47;;
50789;SDS011;37287;47.554;7.844;2024-03-23T15:25:45;6.25;;;2.92;;
50789;SDS011;37287;47.554;7.844;2024-03-23T15:28:11;5.13;;;2.10;;
50789;SDS011;37287;47.554;7.844;2024-03-23T15:30:37;4.18;;;2.00;;
50789;SDS011;37287;47.554;7.844;2024-03-23T15:33:03;4.47;;;2.20;;
50789;SDS011;37287;47.554;7.844;2024-03-23T15:35:28;4.30;;;2.00;;
50789;SDS011;37287;47.554;7.844;2024-03-23T15:37:54;4.30;;;2.30;;
50789;SDS011;37287;47.554;7.844;2024-03-23T15:40:20;6.30;;;2.15;;
50789;SDS011;37287;47.554;7.844;2024-03-23T15:42:45;3.00;;;1.60;;
50789;SDS011;37287;47.554;7.844;2024-03-23T15:45:11;3.20;;;1.58;;
50789;SDS011;37287;47.554;7.844;2024-03-23T15:47:37;2.78;;;1.50;;
50789;SDS011;37287;47.554;7.844;2024-03-23T15:50:03;2.90;;;1.40;;
50789;SDS011;37287;47.554;7.844;2024-03-23T15:52:34;4.97;;;1.63;;
50789;SDS011;37287;47.554;7.844;2024-03-23T15:55:01;3.13;;;1.40;;
50789;SDS011;37287;47.554;7.844;2024-03-23T15:57:34;4.60;;;1.48;;
50789;SDS011;37287;47.554;7.844;2024-03-23T16:00:00;4.15;;;1.30;;
50789;SDS011;37287;47.554;7.844;2024-03-23T16:02:27;4.35;;;1.30;;
50789;SDS011;37287;47.554;7.844;2024-03-23T16:04:53;9.65;;;1.83;;